sensor_id;sensor_type;location;lat;lon;timestamp;P1;durP1;ratioP1;P2;durP2;ratioP2
12290;SDS011;6208;48.956;9.076;2023-06-10T00:01:53;7.75;;;7.03;;
12290;SDS011;6208;48.956;9.076;2023-06-10T00:04:43;7.88;;;7.05;;
12290;SDS011;6208;48.956;9.076;2023-06-10T00:07:28;7.45;;;6.78;;
12290;SDS011;6208;48.956;9.076;2023-06-10T00:10:12;7.22;;;6.72;;
12290;SDS011;6208;48.956;9.076;2023-06-10T00:12:57;9.15;;;8.35;;
12290;SDS011;6208;48.956;9.076;2023-06-10T00:15:42;8.43;;;7.82;;
12290;SDS011;6208;48.956;9.076;2023-06-10T00:18:26;8.52;;;7.78;;
12290;SDS011;6208;48.956;9.076;2023-06-10T00:21:11;8.93;;;8.15;;
12290;SDS011;6208;48.956;9.076;2023-06-10T00:23:57;8.77;;;8.15;;
12290;SDS011;6208;48.956;9.076;2023-06-10T00:26:41;9.52;;;8.65;;
12290;SDS011;6208;48.956;9.076;2023-06-10T00:29:25;8.50;;;7.80;;
12290;SDS011;6208;48.956;9.076;2023-06-10T00:32:10;8.98;;;8.25;;
12290;SDS011;6208;48.956;9.076;2023-06-10T00:34:55;8.50;;;7.80;;
12290;SDS011;6208;48.956;9.076;2023-06-10T00:37:39;8.05;;;7.55;;
12290;SDS011;6208;48.956;9.076;2023-06-10T00:40:24;8.18;;;7.57;;
12290;SDS011;6208;48.956;9.076;2023-06-10T00:43:08;8.13;;;7.32;;
12290;SDS011;6208;48.956;9.076;2023-06-10T00:45:53;8.50;;;7.63;;
12290;SDS011;6208;48.956;9.076;2023-06-10T00:48:39;8.48;;;7.72;;
12290;SDS011;6208;48.956;9.076;2023-06-10T00:51:23;8.10;;;7.30;;
12290;SDS011;6208;48.956;9.076;2023-06-10T00:54:09;8.88;;;7.55;;
12290;SDS011;6208;48.956;9.076;2023-06-10T00:56:57;8.15;;;7.50;;
12290;SDS011;6208;48.956;9.076;2023-06-10T00:59:41;8.40;;;7.68;;
12290;SDS011;6208;48.956;9.076;2023-06-10T01:02:30;7.90;;;7.25;;
12290;SDS011;6208;48.956;9.076;2023-06-10T01:05:15;8.43;;;7.55;;
12290;SDS011;6208;48.956;9.076;2023-06-10T01:08:01;8.13;;;7.53;;
12290;SDS011;6208;48.956;9.076;2023-06-10T01:10:55;7.72;;;7.03;;
12290;SDS011;6208;48.956;9.076;2023-06-10T01:13:43;7.55;;;6.95;;
12290;SDS011;6208;48.956;9.076;2023-06-10T01:16:29;7.50;;;6.80;;
12290;SDS011;6208;48.956;9.076;2023-06-10T01:19:13;7.40;;;6.88;;
12290;SDS011;6208;48.956;9.076;2023-06-10T01:22:01;7.30;;;6.75;;
12290;SDS011;6208;48.956;9.076;2023-06-10T01:24:45;7.20;;;6.57;;
12290;SDS011;6208;48.956;9.076;2023-06-10T01:27:34;7.47;;;6.78;;
12290;SDS011;6208;48.956;9.076;2023-06-10T01:30:27;7.03;;;6.45;;
12290;SDS011;6208;48.956;9.076;2023-06-10T01:33:15;7.22;;;6.72;;
12290;SDS011;6208;48.956;9.076;2023-06-10T01:36:02;6.90;;;6.30;;
12290;SDS011;6208;48.956;9.076;2023-06-10T01:38:47;6.97;;;6.47;;
12290;SDS011;6208;48.956;9.076;2023-06-10T01:41:33;7.03;;;6.43;;
12290;SDS011;6208;48.956;9.076;2023-06-10T01:44:19;7.63;;;6.60;;
12290;SDS011;6208;48.956;9.076;2023-06-10T01:47:05;7.80;;;7.10;;
12290;SDS011;6208;48.956;9.076;2023-06-10T01:49:49;7.10;;;6.50;;
12290;SDS011;6208;48.956;9.076;2023-06-10T01:52:33;7.03;;;6.53;;
12290;SDS011;6208;48.956;9.076;2023-06-10T01:55:18;6.43;;;5.93;;
12290;SDS011;6208;48.956;9.076;2023-06-10T01:58:02;6.30;;;5.90;;
12290;SDS011;6208;48.956;9.076;2023-06-10T02:00:46;5.90;;;5.38;;
12290;SDS011;6208;48.956;9.076;2023-06-10T02:03:30;5.28;;;4.70;;
12290;SDS011;6208;48.956;9.076;2023-06-10T02:06:14;6.18;;;5.78;;
12290;SDS011;6208;48.956;9.076;2023-06-10T02:08:59;6.30;;;5.82;;
12290;SDS011;6208;48.956;9.076;2023-06-10T02:11:43;8.05;;;5.93;;
12290;SDS011;6208;48.956;9.076;2023-06-10T02:14:28;6.28;;;5.78;;
12290;SDS011;6208;48.956;9.076;2023-06-10T02:17:13;6.68;;;6.18;;
12290;SDS011;6208;48.956;9.076;2023-06-10T02:19:58;6.20;;;5.75;;
12290;SDS011;6208;48.956;9.076;2023-06-10T02:22:43;6.00;;;5.60;;
12290;SDS011;6208;48.956;9.076;2023-06-10T02:25:27;6.20;;;5.80;;
12290;SDS011;6208;48.956;9.076;2023-06-10T02:28:12;6.68;;;6.28;;
12290;SDS011;6208;48.956;9.076;2023-06-10T02:30:57;6.68;;;6.07;;
12290;SDS011;6208;48.956;9.076;2023-06-10T02:33:42;7.07;;;6.38;;
12290;SDS011;6208;48.956;9.076;2023-06-10T02:36:27;7.70;;;6.97;;
12290;SDS011;6208;48.956;9.076;2023-06-10T02:39:11;7.30;;;6.75;;
12290;SDS011;6208;48.956;9.076;2023-06-10T02:41:56;6.93;;;6.30;;
12290;SDS011;6208;48.956;9.076;2023-06-10T02:44:40;7.05;;;6.38;;
12290;SDS011;6208;48.956;9.076;2023-06-10T02:47:24;6.35;;;5.95;;
12290;SDS011;6208;48.956;9.076;2023-06-10T02:50:09;6.57;;;6.00;;
12290;SDS011;6208;48.956;9.076;2023-06-10T02:52:53;6.53;;;6.03;;
12290;SDS011;6208;48.956;9.076;2023-06-10T02:55:37;5.85;;;5.45;;
12290;SDS011;6208;48.956;9.076;2023-06-10T02:58:23;6.05;;;5.65;;
12290;SDS011;6208;48.956;9.076;2023-06-10T03:01:08;6.25;;;5.85;;
12290;SDS011;6208;48.956;9.076;2023-06-10T03:03:53;6.30;;;5.85;;
12290;SDS011;6208;48.956;9.076;2023-06-10T03:06:39;5.97;;;5.57;;
12290;SDS011;6208;48.956;9.076;2023-06-10T03:09:24;6.97;;;6.35;;
12290;SDS011;6208;48.956;9.076;2023-06-10T03:12:09;6.20;;;5.80;;
12290;SDS011;6208;48.956;9.076;2023-06-10T03:14:54;9.57;;;6.85;;
12290;SDS011;6208;48.956;9.076;2023-06-10T03:17:38;6.45;;;5.95;;
12290;SDS011;6208;48.956;9.076;2023-06-10T03:20:22;6.72;;;6.13;;
12290;SDS011;6208;48.956;9.076;2023-06-10T03:23:07;6.82;;;6.22;;
12290;SDS011;6208;48.956;9.076;2023-06-10T03:25:51;6.00;;;5.60;;
12290;SDS011;6208;48.956;9.076;2023-06-10T03:28:38;6.65;;;5.85;;
12290;SDS011;6208;48.956;9.076;2023-06-10T03:31:23;6.03;;;5.63;;
12290;SDS011;6208;48.956;9.076;2023-06-10T03:34:08;6.30;;;5.90;;
12290;SDS011;6208;48.956;9.076;2023-06-10T03:36:52;7.68;;;6.75;;
12290;SDS011;6208;48.956;9.076;2023-06-10T03:39:37;6.30;;;5.90;;
12290;SDS011;6208;48.956;9.076;2023-06-10T03:42:21;6.70;;;6.20;;
12290;SDS011;6208;48.956;9.076;2023-06-10T03:45:06;6.47;;;5.88;;
12290;SDS011;6208;48.956;9.076;2023-06-10T03:47:50;6.50;;;5.90;;
12290;SDS011;6208;48.956;9.076;2023-06-10T03:50:35;6.38;;;5.88;;
12290;SDS011;6208;48.956;9.076;2023-06-10T03:53:20;6.18;;;5.68;;
12290;SDS011;6208;48.956;9.076;2023-06-10T03:56:04;6.38;;;5.88;;
12290;SDS011;6208;48.956;9.076;2023-06-10T03:58:48;6.30;;;5.82;;
12290;SDS011;6208;48.956;9.076;2023-06-10T04:01:33;6.65;;;6.15;;
12290;SDS011;6208;48.956;9.076;2023-06-10T04:04:19;6.22;;;5.63;;
12290;SDS011;6208;48.956;9.076;2023-06-10T04:07:04;6.45;;;5.95;;
12290;SDS011;6208;48.956;9.076;2023-06-10T04:09:49;6.30;;;5.80;;
12290;SDS011;6208;48.956;9.076;2023-06-10T04:12:34;6.13;;;5.72;;
12290;SDS011;6208;48.956;9.076;2023-06-10T04:15:19;6.25;;;5.82;;
12290;SDS011;6208;48.956;9.076;2023-06-10T04:18:04;8.23;;;6.15;;
12290;SDS011;6208;48.956;9.076;2023-06-10T04:20:48;13.57;;;7.75;;
12290;SDS011;6208;48.956;9.076;2023-06-10T04:23:33;8.00;;;7.05;;
12290;SDS011;6208;48.956;9.076;2023-06-10T04:26:18;15.82;;;8.23;;
12290;SDS011;6208;48.956;9.076;2023-06-10T04:29:02;12.15;;;7.90;;
12290;SDS011;6208;48.956;9.076;2023-06-10T04:31:46;9.40;;;7.18;;
12290;SDS011;6208;48.956;9.076;2023-06-10T04:34:30;7.72;;;7.07;;
12290;SDS011;6208;48.956;9.076;2023-06-10T04:37:15;6.85;;;6.25;;
12290;SDS011;6208;48.956;9.076;2023-06-10T04:39:59;8.20;;;7.57;;
12290;SDS011;6208;48.956;9.076;2023-06-10T04:42:44;8.57;;;7.88;;
12290;SDS011;6208;48.956;9.076;2023-06-10T04:45:28;8.75;;;7.95;;
12290;SDS011;6208;48.956;9.076;2023-06-10T04:48:13;8.57;;;7.95;;
12290;SDS011;6208;48.956;9.076;2023-06-10T04:50:58;9.20;;;8.38;;
12290;SDS011;6208;48.956;9.076;2023-06-10T04:53:42;8.68;;;7.82;;
12290;SDS011;6208;48.956;9.076;2023-06-10T04:56:28;8.68;;;7.88;;
12290;SDS011;6208;48.956;9.076;2023-06-10T04:59:13;8.57;;;7.88;;
12290;SDS011;6208;48.956;9.076;2023-06-10T05:01:58;8.20;;;7.60;;
12290;SDS011;6208;48.956;9.076;2023-06-10T05:04:43;8.45;;;7.85;;
12290;SDS011;6208;48.956;9.076;2023-06-10T05:07:27;8.45;;;7.85;;
12290;SDS011;6208;48.956;9.076;2023-06-10T05:10:12;9.02;;;8.27;;
12290;SDS011;6208;48.956;9.076;2023-06-10T05:12:57;8.57;;;7.93;;
12290;SDS011;6208;48.956;9.076;2023-06-10T05:15:41;7.97;;;7.38;;
12290;SDS011;6208;48.956;9.076;2023-06-10T05:18:28;8.07;;;7.43;;
12290;SDS011;6208;48.956;9.076;2023-06-10T05:21:12;7.85;;;7.05;;
12290;SDS011;6208;48.956;9.076;2023-06-10T05:23:57;7.03;;;6.53;;
12290;SDS011;6208;48.956;9.076;2023-06-10T05:26:41;8.27;;;7.45;;
12290;SDS011;6208;48.956;9.076;2023-06-10T05:29:26;7.80;;;7.20;;
12290;SDS011;6208;48.956;9.076;2023-06-10T05:32:10;7.15;;;6.60;;
12290;SDS011;6208;48.956;9.076;2023-06-10T05:34:55;7.40;;;6.80;;
12290;SDS011;6208;48.956;9.076;2023-06-10T05:37:39;7.05;;;6.35;;
12290;SDS011;6208;48.956;9.076;2023-06-10T05:40:24;7.10;;;6.60;;
12290;SDS011;6208;48.956;9.076;2023-06-10T05:43:08;6.80;;;6.30;;
12290;SDS011;6208;48.956;9.076;2023-06-10T05:45:53;6.38;;;5.95;;
12290;SDS011;6208;48.956;9.076;2023-06-10T05:48:37;5.88;;;5.47;;
12290;SDS011;6208;48.956;9.076;2023-06-10T05:51:22;6.00;;;5.60;;
12290;SDS011;6208;48.956;9.076;2023-06-10T05:54:06;6.55;;;5.95;;
12290;SDS011;6208;48.956;9.076;2023-06-10T05:56:50;5.68;;;5.25;;
12290;SDS011;6208;48.956;9.076;2023-06-10T05:59:35;5.82;;;5.43;;
12290;SDS011;6208;48.956;9.076;2023-06-10T06:02:19;6.65;;;6.07;;
12290;SDS011;6208;48.956;9.076;2023-06-10T06:05:04;5.68;;;5.18;;
12290;SDS011;6208;48.956;9.076;2023-06-10T06:07:48;4.95;;;4.55;;
12290;SDS011;6208;48.956;9.076;2023-06-10T06:10:33;5.65;;;5.18;;
12290;SDS011;6208;48.956;9.076;2023-06-10T06:13:18;5.25;;;4.85;;
12290;SDS011;6208;48.956;9.076;2023-06-10T06:16:02;5.97;;;5.47;;
12290;SDS011;6208;48.956;9.076;2023-06-10T06:18:46;5.47;;;5.07;;
12290;SDS011;6208;48.956;9.076;2023-06-10T06:21:31;5.15;;;4.85;;
12290;SDS011;6208;48.956;9.076;2023-06-10T06:24:15;5.35;;;4.95;;
12290;SDS011;6208;48.956;9.076;2023-06-10T06:27:00;5.70;;;5.22;;
12290;SDS011;6208;48.956;9.076;2023-06-10T06:29:44;4.97;;;4.68;;
12290;SDS011;6208;48.956;9.076;2023-06-10T06:32:29;5.85;;;5.45;;
12290;SDS011;6208;48.956;9.076;2023-06-10T06:35:13;5.15;;;4.85;;
12290;SDS011;6208;48.956;9.076;2023-06-10T06:37:58;5.90;;;5.50;;
12290;SDS011;6208;48.956;9.076;2023-06-10T06:40:42;6.30;;;5.80;;
12290;SDS011;6208;48.956;9.076;2023-06-10T06:43:27;5.72;;;5.32;;
12290;SDS011;6208;48.956;9.076;2023-06-10T06:46:11;5.18;;;4.88;;
12290;SDS011;6208;48.956;9.076;2023-06-10T06:48:56;5.63;;;5.22;;
12290;SDS011;6208;48.956;9.076;2023-06-10T06:51:41;6.15;;;5.55;;
12290;SDS011;6208;48.956;9.076;2023-06-10T06:54:25;6.38;;;5.75;;
12290;SDS011;6208;48.956;9.076;2023-06-10T06:57:10;6.22;;;5.82;;
12290;SDS011;6208;48.956;9.076;2023-06-10T06:59:54;5.88;;;5.47;;
12290;SDS011;6208;48.956;9.076;2023-06-10T07:02:39;5.47;;;5.07;;
12290;SDS011;6208;48.956;9.076;2023-06-10T07:05:24;5.00;;;4.70;;
12290;SDS011;6208;48.956;9.076;2023-06-10T07:08:11;6.13;;;5.63;;
12290;SDS011;6208;48.956;9.076;2023-06-10T07:10:56;6.05;;;5.65;;
12290;SDS011;6208;48.956;9.076;2023-06-10T07:13:41;5.95;;;5.55;;
12290;SDS011;6208;48.956;9.076;2023-06-10T07:16:25;5.80;;;5.32;;
12290;SDS011;6208;48.956;9.076;2023-06-10T07:19:09;5.80;;;5.40;;
12290;SDS011;6208;48.956;9.076;2023-06-10T07:21:54;5.82;;;5.32;;
12290;SDS011;6208;48.956;9.076;2023-06-10T07:24:38;6.03;;;5.43;;
12290;SDS011;6208;48.956;9.076;2023-06-10T07:27:23;5.97;;;5.47;;
12290;SDS011;6208;48.956;9.076;2023-06-10T07:30:08;4.95;;;4.65;;
12290;SDS011;6208;48.956;9.076;2023-06-10T07:32:53;5.18;;;4.78;;
12290;SDS011;6208;48.956;9.076;2023-06-10T07:35:37;5.25;;;4.93;;
12290;SDS011;6208;48.956;9.076;2023-06-10T07:38:22;5.85;;;4.97;;
12290;SDS011;6208;48.956;9.076;2023-06-10T07:41:06;5.20;;;4.90;;
12290;SDS011;6208;48.956;9.076;2023-06-10T07:43:52;5.30;;;4.90;;
12290;SDS011;6208;48.956;9.076;2023-06-10T07:46:38;5.65;;;5.15;;
12290;SDS011;6208;48.956;9.076;2023-06-10T07:49:22;5.00;;;4.70;;
12290;SDS011;6208;48.956;9.076;2023-06-10T07:52:07;5.40;;;4.85;;
12290;SDS011;6208;48.956;9.076;2023-06-10T07:54:52;4.97;;;4.57;;
12290;SDS011;6208;48.956;9.076;2023-06-10T07:57:36;4.93;;;4.63;;
12290;SDS011;6208;48.956;9.076;2023-06-10T08:00:22;5.00;;;4.60;;
12290;SDS011;6208;48.956;9.076;2023-06-10T08:03:07;5.55;;;4.78;;
12290;SDS011;6208;48.956;9.076;2023-06-10T08:05:51;4.63;;;4.32;;
12290;SDS011;6208;48.956;9.076;2023-06-10T08:08:35;4.88;;;4.57;;
12290;SDS011;6208;48.956;9.076;2023-06-10T08:11:25;5.00;;;4.70;;
12290;SDS011;6208;48.956;9.076;2023-06-10T08:14:12;5.05;;;4.75;;
12290;SDS011;6208;48.956;9.076;2023-06-10T08:16:55;5.03;;;4.72;;
12290;SDS011;6208;48.956;9.076;2023-06-10T08:19:40;4.93;;;4.63;;
12290;SDS011;6208;48.956;9.076;2023-06-10T08:22:24;4.95;;;4.65;;
12290;SDS011;6208;48.956;9.076;2023-06-10T08:25:09;5.43;;;4.93;;
12290;SDS011;6208;48.956;9.076;2023-06-10T08:27:54;5.18;;;4.80;;
12290;SDS011;6208;48.956;9.076;2023-06-10T08:30:40;5.05;;;4.75;;
12290;SDS011;6208;48.956;9.076;2023-06-10T08:33:24;5.30;;;5.00;;
12290;SDS011;6208;48.956;9.076;2023-06-10T08:36:09;4.70;;;4.40;;
12290;SDS011;6208;48.956;9.076;2023-06-10T08:38:54;5.13;;;4.82;;
12290;SDS011;6208;48.956;9.076;2023-06-10T08:41:41;5.25;;;4.85;;
12290;SDS011;6208;48.956;9.076;2023-06-10T08:44:28;5.65;;;4.88;;
12290;SDS011;6208;48.956;9.076;2023-06-10T08:47:13;7.95;;;4.38;;
12290;SDS011;6208;48.956;9.076;2023-06-10T08:50:00;4.93;;;4.63;;
12290;SDS011;6208;48.956;9.076;2023-06-10T08:52:48;6.18;;;5.78;;
12290;SDS011;6208;48.956;9.076;2023-06-10T08:55:37;4.60;;;4.30;;
12290;SDS011;6208;48.956;9.076;2023-06-10T08:58:25;4.85;;;4.55;;
12290;SDS011;6208;48.956;9.076;2023-06-10T09:01:11;4.82;;;4.53;;
12290;SDS011;6208;48.956;9.076;2023-06-10T09:03:57;4.63;;;4.28;;
12290;SDS011;6208;48.956;9.076;2023-06-10T09:06:42;4.43;;;4.22;;
12290;SDS011;6208;48.956;9.076;2023-06-10T09:09:26;4.82;;;4.47;;
12290;SDS011;6208;48.956;9.076;2023-06-10T09:12:14;4.63;;;4.32;;
12290;SDS011;6208;48.956;9.076;2023-06-10T09:14:59;5.32;;;4.93;;
12290;SDS011;6208;48.956;9.076;2023-06-10T09:17:44;5.00;;;4.70;;
12290;SDS011;6208;48.956;9.076;2023-06-10T09:20:29;4.80;;;4.40;;
12290;SDS011;6208;48.956;9.076;2023-06-10T09:23:13;5.35;;;4.95;;
12290;SDS011;6208;48.956;9.076;2023-06-10T09:25:58;5.20;;;4.88;;
12290;SDS011;6208;48.956;9.076;2023-06-10T09:28:49;5.25;;;4.82;;
12290;SDS011;6208;48.956;9.076;2023-06-10T09:31:34;5.00;;;4.60;;
12290;SDS011;6208;48.956;9.076;2023-06-10T09:34:24;5.00;;;4.60;;
12290;SDS011;6208;48.956;9.076;2023-06-10T09:37:09;5.38;;;5.03;;
12290;SDS011;6208;48.956;9.076;2023-06-10T09:40:00;5.03;;;4.72;;
12290;SDS011;6208;48.956;9.076;2023-06-10T09:42:53;5.30;;;4.82;;
12290;SDS011;6208;48.956;9.076;2023-06-10T09:45:39;5.15;;;4.85;;
12290;SDS011;6208;48.956;9.076;2023-06-10T09:48:23;4.47;;;4.22;;
12290;SDS011;6208;48.956;9.076;2023-06-10T09:51:08;5.63;;;5.18;;
12290;SDS011;6208;48.956;9.076;2023-06-10T09:53:54;5.40;;;4.90;;
12290;SDS011;6208;48.956;9.076;2023-06-10T09:56:38;5.13;;;4.47;;
12290;SDS011;6208;48.956;9.076;2023-06-10T09:59:29;5.13;;;4.72;;
12290;SDS011;6208;48.956;9.076;2023-06-10T10:02:15;5.53;;;4.80;;
12290;SDS011;6208;48.956;9.076;2023-06-10T10:05:03;4.72;;;4.25;;
12290;SDS011;6208;48.956;9.076;2023-06-10T10:07:48;5.00;;;4.60;;
12290;SDS011;6208;48.956;9.076;2023-06-10T10:10:33;5.40;;;5.00;;
12290;SDS011;6208;48.956;9.076;2023-06-10T10:13:18;4.80;;;4.40;;
12290;SDS011;6208;48.956;9.076;2023-06-10T10:16:14;5.20;;;4.80;;
12290;SDS011;6208;48.956;9.076;2023-06-10T10:19:01;4.80;;;4.50;;
12290;SDS011;6208;48.956;9.076;2023-06-10T10:21:57;5.68;;;4.95;;
12290;SDS011;6208;48.956;9.076;2023-06-10T10:25:05;4.10;;;3.78;;
12290;SDS011;6208;48.956;9.076;2023-06-10T10:27:59;4.43;;;4.05;;
12290;SDS011;6208;48.956;9.076;2023-06-10T10:30:46;4.47;;;4.18;;
12290;SDS011;6208;48.956;9.076;2023-06-10T10:33:38;4.95;;;4.65;;
12290;SDS011;6208;48.956;9.076;2023-06-10T10:36:27;4.40;;;4.00;;
12290;SDS011;6208;48.956;9.076;2023-06-10T10:39:12;4.60;;;4.20;;
12290;SDS011;6208;48.956;9.076;2023-06-10T10:41:57;4.32;;;4.13;;
12290;SDS011;6208;48.956;9.076;2023-06-10T10:44:42;4.32;;;4.13;;
12290;SDS011;6208;48.956;9.076;2023-06-10T10:47:27;4.35;;;4.05;;
12290;SDS011;6208;48.956;9.076;2023-06-10T10:50:16;4.50;;;4.20;;
12290;SDS011;6208;48.956;9.076;2023-06-10T10:53:02;4.60;;;4.20;;
12290;SDS011;6208;48.956;9.076;2023-06-10T10:55:57;4.00;;;3.80;;
12290;SDS011;6208;48.956;9.076;2023-06-10T10:58:43;4.10;;;3.85;;
12290;SDS011;6208;48.956;9.076;2023-06-10T11:01:48;10.30;;;9.30;;
12290;SDS011;6208;48.956;9.076;2023-06-10T11:04:33;4.45;;;4.25;;
12290;SDS011;6208;48.956;9.076;2023-06-10T11:07:20;4.03;;;3.72;;
12290;SDS011;6208;48.956;9.076;2023-06-10T11:10:09;4.90;;;4.50;;
12290;SDS011;6208;48.956;9.076;2023-06-10T11:12:54;4.35;;;4.15;;
12290;SDS011;6208;48.956;9.076;2023-06-10T11:15:43;4.88;;;4.03;;
12290;SDS011;6208;48.956;9.076;2023-06-10T11:18:30;5.07;;;4.20;;
12290;SDS011;6208;48.956;9.076;2023-06-10T11:21:23;4.40;;;4.10;;
12290;SDS011;6208;48.956;9.076;2023-06-10T11:24:12;4.50;;;4.20;;
12290;SDS011;6208;48.956;9.076;2023-06-10T11:32:51;4.40;;;4.00;;
12290;SDS011;6208;48.956;9.076;2023-06-10T11:35:39;4.18;;;3.97;;
12290;SDS011;6208;48.956;9.076;2023-06-10T11:38:23;3.92;;;3.65;;
12290;SDS011;6208;48.956;9.076;2023-06-10T11:41:08;3.78;;;3.58;;
12290;SDS011;6208;48.956;9.076;2023-06-10T11:43:54;6.97;;;3.45;;
12290;SDS011;6208;48.956;9.076;2023-06-10T11:46:42;3.85;;;3.65;;
12290;SDS011;6208;48.956;9.076;2023-06-10T11:49:26;3.95;;;3.75;;
12290;SDS011;6208;48.956;9.076;2023-06-10T11:52:11;4.78;;;3.70;;
12290;SDS011;6208;48.956;9.076;2023-06-10T11:54:55;4.60;;;4.30;;
12290;SDS011;6208;48.956;9.076;2023-06-10T11:57:40;4.30;;;4.10;;
12290;SDS011;6208;48.956;9.076;2023-06-10T12:00:24;4.20;;;3.90;;
12290;SDS011;6208;48.956;9.076;2023-06-10T12:03:09;10.40;;;4.68;;
12290;SDS011;6208;48.956;9.076;2023-06-10T12:08:44;4.05;;;3.83;;
12290;SDS011;6208;48.956;9.076;2023-06-10T12:11:29;4.00;;;3.80;;
12290;SDS011;6208;48.956;9.076;2023-06-10T12:14:13;4.18;;;3.97;;
12290;SDS011;6208;48.956;9.076;2023-06-10T12:16:58;4.53;;;4.20;;
12290;SDS011;6208;48.956;9.076;2023-06-10T12:19:42;4.80;;;4.30;;
12290;SDS011;6208;48.956;9.076;2023-06-10T12:22:27;4.60;;;4.20;;
12290;SDS011;6208;48.956;9.076;2023-06-10T12:25:26;4.07;;;3.88;;
12290;SDS011;6208;48.956;9.076;2023-06-10T12:28:11;4.28;;;3.88;;
12290;SDS011;6208;48.956;9.076;2023-06-10T12:31:08;3.88;;;3.67;;
12290;SDS011;6208;48.956;9.076;2023-06-10T12:34:07;4.32;;;4.00;;
12290;SDS011;6208;48.956;9.076;2023-06-10T12:36:52;3.88;;;3.67;;
12290;SDS011;6208;48.956;9.076;2023-06-10T12:39:36;3.85;;;3.65;;
12290;SDS011;6208;48.956;9.076;2023-06-10T12:42:22;3.97;;;3.78;;
12290;SDS011;6208;48.956;9.076;2023-06-10T12:45:07;3.97;;;3.78;;
12290;SDS011;6208;48.956;9.076;2023-06-10T12:48:03;3.35;;;3.20;;
12290;SDS011;6208;48.956;9.076;2023-06-10T12:50:56;3.70;;;3.47;;
12290;SDS011;6208;48.956;9.076;2023-06-10T12:53:41;3.72;;;3.50;;
12290;SDS011;6208;48.956;9.076;2023-06-10T12:56:27;3.58;;;3.28;;
12290;SDS011;6208;48.956;9.076;2023-06-10T12:59:11;5.22;;;3.75;;
12290;SDS011;6208;48.956;9.076;2023-06-10T13:01:56;3.80;;;3.60;;
12290;SDS011;6208;48.956;9.076;2023-06-10T13:04:40;3.97;;;3.60;;
12290;SDS011;6208;48.956;9.076;2023-06-10T13:07:27;3.70;;;3.50;;
12290;SDS011;6208;48.956;9.076;2023-06-10T13:10:14;3.30;;;3.17;;
12290;SDS011;6208;48.956;9.076;2023-06-10T13:13:00;3.50;;;3.30;;
12290;SDS011;6208;48.956;9.076;2023-06-10T13:15:45;3.50;;;3.30;;
12290;SDS011;6208;48.956;9.076;2023-06-10T13:18:30;3.88;;;3.20;;
12290;SDS011;6208;48.956;9.076;2023-06-10T13:21:20;3.08;;;2.80;;
12290;SDS011;6208;48.956;9.076;2023-06-10T13:24:05;3.35;;;3.13;;
12290;SDS011;6208;48.956;9.076;2023-06-10T13:26:49;3.47;;;3.28;;
12290;SDS011;6208;48.956;9.076;2023-06-10T13:29:34;3.28;;;3.13;;
12290;SDS011;6208;48.956;9.076;2023-06-10T13:32:19;3.60;;;3.30;;
12290;SDS011;6208;48.956;9.076;2023-06-10T13:35:05;3.58;;;3.38;;
12290;SDS011;6208;48.956;9.076;2023-06-10T13:37:49;3.60;;;3.28;;
12290;SDS011;6208;48.956;9.076;2023-06-10T13:40:34;3.45;;;2.90;;
12290;SDS011;6208;48.956;9.076;2023-06-10T13:43:19;3.15;;;2.95;;
12290;SDS011;6208;48.956;9.076;2023-06-10T13:46:04;3.25;;;3.05;;
12290;SDS011;6208;48.956;9.076;2023-06-10T13:48:49;3.15;;;3.05;;
12290;SDS011;6208;48.956;9.076;2023-06-10T13:51:34;3.47;;;3.28;;
12290;SDS011;6208;48.956;9.076;2023-06-10T13:54:18;3.78;;;3.47;;
12290;SDS011;6208;48.956;9.076;2023-06-10T13:57:04;3.17;;;2.97;;
12290;SDS011;6208;48.956;9.076;2023-06-10T13:59:49;3.17;;;2.97;;
12290;SDS011;6208;48.956;9.076;2023-06-10T14:02:34;3.30;;;3.20;;
12290;SDS011;6208;48.956;9.076;2023-06-10T14:05:19;4.00;;;3.70;;
12290;SDS011;6208;48.956;9.076;2023-06-10T14:08:04;4.07;;;3.88;;
12290;SDS011;6208;48.956;9.076;2023-06-10T14:10:48;3.85;;;3.65;;
12290;SDS011;6208;48.956;9.076;2023-06-10T14:13:34;3.72;;;3.47;;
12290;SDS011;6208;48.956;9.076;2023-06-10T14:16:21;3.63;;;3.42;;
12290;SDS011;6208;48.956;9.076;2023-06-10T14:19:06;3.65;;;3.45;;
12290;SDS011;6208;48.956;9.076;2023-06-10T14:21:51;3.78;;;3.47;;
12290;SDS011;6208;48.956;9.076;2023-06-10T14:24:37;3.35;;;3.15;;
12290;SDS011;6208;48.956;9.076;2023-06-10T14:27:21;3.58;;;3.28;;
12290;SDS011;6208;48.956;9.076;2023-06-10T14:30:06;3.40;;;3.28;;
12290;SDS011;6208;48.956;9.076;2023-06-10T14:32:51;3.30;;;3.10;;
12290;SDS011;6208;48.956;9.076;2023-06-10T14:35:35;3.63;;;3.13;;
12290;SDS011;6208;48.956;9.076;2023-06-10T14:38:20;3.20;;;3.00;;
12290;SDS011;6208;48.956;9.076;2023-06-10T14:41:04;3.58;;;3.45;;
12290;SDS011;6208;48.956;9.076;2023-06-10T14:43:49;3.25;;;3.13;;
12290;SDS011;6208;48.956;9.076;2023-06-10T14:46:33;4.18;;;3.45;;
12290;SDS011;6208;48.956;9.076;2023-06-10T14:49:18;3.30;;;3.10;;
12290;SDS011;6208;48.956;9.076;2023-06-10T14:52:03;3.30;;;3.10;;
12290;SDS011;6208;48.956;9.076;2023-06-10T14:54:47;3.67;;;3.05;;
12290;SDS011;6208;48.956;9.076;2023-06-10T14:57:32;3.50;;;3.20;;
12290;SDS011;6208;48.956;9.076;2023-06-10T15:00:16;3.00;;;2.90;;
12290;SDS011;6208;48.956;9.076;2023-06-10T15:03:06;3.53;;;3.33;;
12290;SDS011;6208;48.956;9.076;2023-06-10T15:05:50;3.35;;;3.15;;
12290;SDS011;6208;48.956;9.076;2023-06-10T15:08:34;3.67;;;3.20;;
12290;SDS011;6208;48.956;9.076;2023-06-10T15:11:19;3.40;;;3.25;;
12290;SDS011;6208;48.956;9.076;2023-06-10T15:14:04;3.50;;;3.30;;
12290;SDS011;6208;48.956;9.076;2023-06-10T15:16:49;3.17;;;3.08;;
12290;SDS011;6208;48.956;9.076;2023-06-10T15:19:33;3.42;;;3.13;;
12290;SDS011;6208;48.956;9.076;2023-06-10T15:22:17;3.05;;;2.88;;
12290;SDS011;6208;48.956;9.076;2023-06-10T15:25:02;3.05;;;2.95;;
12290;SDS011;6208;48.956;9.076;2023-06-10T15:27:47;3.25;;;3.05;;
12290;SDS011;6208;48.956;9.076;2023-06-10T15:30:31;3.45;;;3.15;;
12290;SDS011;6208;48.956;9.076;2023-06-10T15:33:15;3.15;;;2.95;;
12290;SDS011;6208;48.956;9.076;2023-06-10T15:36:00;2.88;;;2.78;;
12290;SDS011;6208;48.956;9.076;2023-06-10T15:38:45;3.10;;;2.97;;
12290;SDS011;6208;48.956;9.076;2023-06-10T15:41:30;3.25;;;3.08;;
12290;SDS011;6208;48.956;9.076;2023-06-10T15:44:15;3.65;;;3.45;;
12290;SDS011;6208;48.956;9.076;2023-06-10T15:47:00;3.33;;;3.13;;
12290;SDS011;6208;48.956;9.076;2023-06-10T15:49:44;3.30;;;3.20;;
12290;SDS011;6208;48.956;9.076;2023-06-10T15:52:29;3.00;;;2.90;;
12290;SDS011;6208;48.956;9.076;2023-06-10T15:55:13;3.33;;;3.13;;
12290;SDS011;6208;48.956;9.076;2023-06-10T15:57:58;3.53;;;3.33;;
12290;SDS011;6208;48.956;9.076;2023-06-10T16:00:47;3.20;;;3.00;;
12290;SDS011;6208;48.956;9.076;2023-06-10T16:03:31;3.00;;;2.80;;
12290;SDS011;6208;48.956;9.076;2023-06-10T16:06:16;3.10;;;2.90;;
12290;SDS011;6208;48.956;9.076;2023-06-10T16:09:01;3.35;;;3.25;;
12290;SDS011;6208;48.956;9.076;2023-06-10T16:11:46;5.10;;;4.47;;
12290;SDS011;6208;48.956;9.076;2023-06-10T16:14:31;3.13;;;2.92;;
12290;SDS011;6208;48.956;9.076;2023-06-10T16:17:16;3.45;;;3.25;;
12290;SDS011;6208;48.956;9.076;2023-06-10T16:20:00;3.80;;;3.20;;
12290;SDS011;6208;48.956;9.076;2023-06-10T16:22:45;3.30;;;3.10;;
12290;SDS011;6208;48.956;9.076;2023-06-10T16:25:30;3.20;;;2.90;;
12290;SDS011;6208;48.956;9.076;2023-06-10T16:28:15;3.63;;;3.42;;
12290;SDS011;6208;48.956;9.076;2023-06-10T16:30:59;3.40;;;3.20;;
12290;SDS011;6208;48.956;9.076;2023-06-10T16:33:44;3.13;;;3.03;;
12290;SDS011;6208;48.956;9.076;2023-06-10T16:36:29;3.30;;;3.13;;
12290;SDS011;6208;48.956;9.076;2023-06-10T16:39:13;3.05;;;2.90;;
12290;SDS011;6208;48.956;9.076;2023-06-10T16:41:58;3.15;;;2.95;;
12290;SDS011;6208;48.956;9.076;2023-06-10T16:44:42;3.58;;;2.80;;
12290;SDS011;6208;48.956;9.076;2023-06-10T16:47:27;2.78;;;2.67;;
12290;SDS011;6208;48.956;9.076;2023-06-10T16:50:11;3.58;;;2.70;;
12290;SDS011;6208;48.956;9.076;2023-06-10T16:52:56;3.00;;;2.88;;
12290;SDS011;6208;48.956;9.076;2023-06-10T16:55:41;2.92;;;2.83;;
12290;SDS011;6208;48.956;9.076;2023-06-10T16:58:25;3.20;;;3.10;;
12290;SDS011;6208;48.956;9.076;2023-06-10T17:01:10;3.15;;;2.85;;